AirNav   TITAN Aviation Fuels
 
 524 users online  

KDAA Davison Army Airfield
Fort Belvoir, Virginia, USA

GOING TO FORT BELVOIR?


FAA INFORMATION EFFECTIVE 16 JUNE 2022

Location

FAA Identifier: DAA
Lat/Long: 38-42-53.7220N 077-10-51.2190W
38-42.895367N 077-10.853650W
38.7149228,-77.1808942
(estimated)
Elevation: 73.5 ft. / 22.4 m (surveyed)
Variation: 09W (1985)
From city: 3 miles NW of FORT BELVOIR, VA
Time zone: UTC -4 (UTC -5 during Standard Time)
Zip code: 22060

Airport Operations

Airport use: Private use. Permission required prior to landing
Control tower: yes
ARTCC: WASHINGTON CENTER
FSS: LEESBURG FLIGHT SERVICE STATION
NOTAMs facility: DCA (NOTAM-D service available)
Attendance: CONTINUOUS
Pattern altitude: 1173.5 ft. MSL
Segmented circle: no
Lights: AVBL 0230-1100Z++ MON-FRI AND 24 HRS ON WKNDS AND HOLS. WHEN TWR CLSD HIRL RWY 14-32 SET TO PCL. TO ACTVT & INCR INTS MALSF RWY 32; PAPI RWY 14 & 32 - CTAF.
Beacon: white-white-green (lighted military airport)
Operates sunset to sunrise.

Airport Communications

CTAF: 126.3
ATIS: 128.175
DAVIDSON GROUND: 121.9 351.8 [1100-0230Z++ MON-FRI EXC HOL.]
DAVIDSON TOWER: 126.3 229.4 241.0 [1100-0230Z++ MON-FRI EXC HOL.]
POTOMAC APPROACH: 118.95 124.7
POTOMAC DEPARTURE: 118.95 124.7
CLEARANCE DELIVERY: 351.8
ARNG OPS: 52.75
ASR/PAR: 118.85 119.95 248.5 265.6
BASE OPS: 139.4
CLTCH DP: 118.95
EMERG: 121.5 243.0
FRDMM STAR: 118.675
IRONS STAR: 126.4
JDUBB DP: 118.95
NUMMY STAR: 118.675
PMSV METRO: 139.4
PTD: 139.4
SCRAM DP: 118.95
TIKEE STAR: 120.45
TRUPS STAR: 118.675
WX ASOS at DCA (11 nm NE): 132.65 (703-418-1177)
WX AWOS-3PT at HEF (16 nm W): PHONE 703-361-6160
WX ASOS at IAD (19 nm NW): PHONE 703-661-2990
  • PAR RWY 32 LOCATED AT LAT 38-43-03.27N LONG 077-10-58.86W. ELEV 44.2.
  • PAR RWY 14 LOCATED AT LAT 38-43-48.92N LONG 077-10-39.54W. ELEV 56.0.
  • VIP ARR CTC BASE OPS 15 MIN PRIOR TO LDG.

Airport Services

Runway Information

Runway 14/32

Dimensions: 5421 x 75 ft. / 1652 x 23 m
Surface: asphalt
Weight bearing capacity: 
PCN 52 /F/A/W/T
Runway edge lights: high intensity
RUNWAY 14  RUNWAY 32
Latitude: 38-43.202500N38-42.588200N
Longitude: 077-11.267333W077-10.440033W
Elevation: 48.8 ft.73.4 ft.
Traffic pattern: leftleft
Runway heading: 142 magnetic, 133 true322 magnetic, 313 true
Displaced threshold: 491 ft.892 ft.
Markings: precision, in good conditionprecision, in good condition
Visual slope indicator: 4-light PAPI on left (3.00 degrees glide path)4-light PAPI on right (3.00 degrees glide path)
RVR equipment: rollouttouchdown
Approach lights: NATO STD APPROACH LGTS (BP).MALSF: 1,400 foot medium intensity approach lighting system with sequenced flashers
Runway end identifier lights: nono
Touchdown point: yes, no lightsyes, no lights
Instrument approach: ILS/DME

Helipad H1

Dimensions: 50 x 50 ft. / 15 x 15 m
Surface: concrete
Latitude: 38-43.020000N
Longitude: 077-10.789833W
Elevation: 40.0 ft.
Traffic pattern: leftleft

Airport Ownership and Management from official FAA records

Ownership: U.S. Army
Owner: DAVISON ARMY AIRFIELD
US ARMY ATCA-ASO, 6970 BRITTON DR
FT BELVIOR, VA 22060
Manager: Phone 703-664-1201

Additional Remarks

FUEL:FUEL - J8. AVBL 1200-0300Z++ MON-FRI;1330-2130Z++ SAT-SUN,.
MISC-AERODROME BEACON LOCATED 4600' E-NE OF AFLD ON TOP OF DLA BLDG.
RSTD: RWY 14 PAPI ARE NON=STANDARD. VFR USE ONLY.
FOR CD WHEN ATCT IS CLSD CTC POTOMAC APCH AT 866-599-3874.
RSTD: TWY G, H, AND J CLSD FOR NIGHT AND IFR OPS DUE TO BEING UNLIT.
RSTD: HELIPAD 14/32 IS 50 FT BY 50 FT WIDE. LMTD TO H-60 AND SMALLER ACFT OPS.
HAZARDS: RWY 14 INBRD (INGROUND) THLD LGTS ARE REMOVED.
RSTD: HELIPAD 14/32 CLSD FOR NIGHT AND IFR OPS DUE TO BEING UNLIT.
OIL: 0-123-128-148-156.
OFFL BUS ONLY. PPR 24 HR NOTICE FOR ALL N0N DAA BASED ACFT,CTC BASE OPS 1200-2100Z++ WKD, DSN 656-7683/7682, C703-806-7682/7683.
RSTD: 24 HR PPR NVESD RAMP, DSN 656-7675/7676, C703-806-7675/7676.
CAUTON: EXP SHEAR/CROSSWIND SHIFT TDZ RWY 32 DUR SW-NW WIND. BIRD AND DEER HAZ.
TFC PAT: F/W R/W SW 1500', R/W/NE 1100'.
NS ABTMT: TWR WILL ADVS OF RSTD TO ENG RUN-UP, TKOF AND LDG BTN 0300-1300Z++ MON-SAT;2200-1700Z++ SUN AND HOL.
MISC: WITH CTL TWR/OPR APV, DEP ACFT MAY USE RWY APCH END OVRN FOR TKOF ROLL. WX FCST 1100-0230Z++ MON-FRI,EXC HOL, OT REMOTE BRIEFING SVC AVBL 15TH OWS, SCOTT AFB DSN 576-9755, C618-256-9755, FAX EXTN 4855 0R HTTP://OWS.SCOTT.AF.MIL. SEE VFR-S FOR PENTAGON HELIPORT.
ARNG: OPR 24/7. 24 HR PPR FOR TRAN ACFT, DSN 656-7092/7690, C703-806-7092/7690 FAX 7298.

Instrument Procedures

NOTE: All procedures below are presented as PDF files. If you need a reader for these files, you should download the free Adobe Reader.

NOT FOR NAVIGATION. Please procure official charts for flight.
FAA instrument procedures published for use from 16 June 2022 at 0901Z to 14 July 2022 at 0900z.

 
STARs - Standard Terminal Arrivals
FRDMM FIVE (RNAV)   2 pages: [1] [2] (455KB)
NUMMY THREE   download (289KB)
TIKEE THREE (RNAV)   download (219KB)
TRUPS FOUR (RNAV)   2 pages: [1] [2] (477KB)
 
IAPs - Instrument Approach Procedures
ILS OR LOC RWY 32   download (163KB)
RNAV (GPS) RWY 14   download (71KB)
RNAV (GPS) RWY 32   download (78KB)
NDB RWY 32   download (149KB)
Radar Approach Procedures available   download (186KB)
 
Departure Procedures
CLTCH THREE (RNAV)   download (168KB)
JDUBB FOUR (RNAV)   download (168KB)
SCRAM SIX (RNAV)   download (157KB)
NOTE: Special Take-Off Minimums/Departure Procedures apply   download (217KB)

Other nearby airports with instrument procedures:

2W5 - Maryland Airport (9 nm SE)
KDCA - Ronald Reagan Washington National Airport (11 nm NE)
KVKX - Potomac Airfield (11 nm E)
W32 - Washington Executive Airport/Hyde Field (12 nm E)
KNYG - Quantico Marine Corps Air Facility (Turner Field) (14 nm SW)
KHEF - Manassas Regional Airport/Harry P. Davis Field (16 nm W)
KADW - Joint Base Andrews (16 nm E)
KIAD - Washington Dulles International Airport (19 nm NW)
 
Loc | Ops | Rwys | IFR | FBO | Links
Com | Nav | Svcs | Stats | Notes
Area around KDAA (Davison Army Airfield)
 
Road maps at: MapQuest Bing Google
 
Aerial photo
WARNING: Photo may not be current or correct
Aerial photo of KDAA (Davison Army Airfield)
Photo by Jeff Long, SkyFocal.com
Photo taken 05-Nov-2011
looking northwest.

Do you have a better or more recent aerial photo of Davison Army Airfield that you would like to share? If so, please send us your photo.

 
Sectional chart

 
Airport distance calculator
Flying to Davison Army Airfield? Find the distance to fly.

From to KDAA

Sunrise and sunset
Times for 30-Jun-2022
 Local
(UTC-4)
 Zulu
(UTC)
Morning civil twilight05:1609:16
Sunrise05:4809:48
Sunset20:3700:37
Evening civil twilight21:0801:08

Current date and time
Zulu (UTC)  30-Jun-2022 08:11:21
Local (UTC-4)  30-Jun-2022 04:11:21
 
METAR
KDAA 300756Z AUTO 00000KT 10SM CLR 19/19 A3019 RMK AO2 SLP226 T01930193 $
KDCA 
11nm NE 
300752Z 18003KT 10SM FEW065 SCT250 23/19 A3021 RMK AO2 SLP229 T02330194
KNYG 
14nm S 
300756Z 21004KT 8SM BKN100 24/20 A3021 RMK AO2 SLP232 T02390200
KHEF 
16nm W 
300756Z AUTO 00000KT 7SM CLR 18/18 A3021 RMK AO2 SLP236 T01830178
KADW 
16nm NE 
300756Z AUTO 23004KT 10SM CLR 22/19 A3019 RMK AO2 SLP228 T02170192 $
KIAD 
18nm NW 
300752Z 33003KT 10SM CLR 20/18 A3021 RMK AO2 SLP226 T02000178
TAF
KDAA 292000Z 2920/0102 21009KT 9999 FEW055 QNH3017INS BECMG 3002/3003 VRB06KT 9999 FEW030 BKN050 QNH3021INS BECMG 3010/3011 VRB06KT 8000 BR FEW025 SCT040 QNH3013INS BECMG 3013/3014 VRB06KT 9999 NSW SKC QNH3018INS TX30/2920Z TN19/3010Z LAST NO AMDS AFT 3001 NEXT 3012
KDCA 
11nm NE 
300539Z 3006/0112 19007KT P6SM FEW060 SCT250
KNYG 
14nm S 
2921/3021 17010KT 9999 FEW060 QNH3015INS BECMG 2923/3001 18007KT BKN035 QNH3020INS FM301015 VRB06KT SKC QNH3022INS T19/3010Z T30/3019Z
KADW 
16nm NE 
300100Z 3001/0107 20006KT 9999 SCT050 QNH3018INS BECMG 3008/3009 VRB05KT 9999 SKC QNH3014INS TX30/3017Z TN20/3010Z
KIAD 
18nm NW 
300539Z 3006/0112 00000KT P6SM FEW250 FM301800 18004KT P6SM SKC
NOTAMs
Click for the latest NOTAMs
NOTAMs are issued by the DoD/FAA and will open in a separate window not controlled by AirNav.

 

 
 

Would you like to see your business listed on this page?

 If your business provides an interesting product or service to pilots, flight crews, aircraft, or users of the Davison Army Airfield, you should consider listing it here.  To start the listing process, click on the button below
 
Add a business
 

Other Pages about Davison Army Airfield

Update a link
 
Copyright © AirNav, LLC. All rights reserved. Privacy Policy  Contact